Time;durP1;ratioP1;P1;durP2;ratioP2;P2;SDS_P1;SDS_P2;PMS_P1;PMS_P2;Temp;Humidity;BMP_temperature;BMP_pressure;BME280_temperature;BME280_humidity;BME280_pressure;Samples;Min_cycle;Max_cycle;Signal;HPM_P1;HPM_P2
2023/10/23 00:00:56;;;;;;;8.63;1.50;;;;;;;;;;5087598;28;20202;-64
2023/10/23 00:03:23;;;;;;;8.83;1.87;;;;;;;;;;5087641;28;20202;-65
2023/10/23 00:05:50;;;;;;;5.40;1.13;;;;;;;;;;5087340;28;20810;-64
2023/10/23 00:08:18;;;;;;;1.83;1.50;;;;;;;;;;5087752;28;20232;-65
2023/10/23 00:10:46;;;;;;;2.10;1.00;;;;;;;;;;5087225;28;20670;-65
2023/10/23 00:13:13;;;;;;;2.77;1.30;;;;;;;;;;5086998;28;20877;-64
2023/10/23 00:15:40;;;;;;;1.33;1.23;;;;;;;;;;5073983;28;20809;-64
2023/10/23 00:18:07;;;;;;;1.03;1.03;;;;;;;;;;5066886;28;20231;-64
2023/10/23 00:20:35;;;;;;;2.90;1.40;;;;;;;;;;5074116;28;20218;-64
2023/10/23 00:23:02;;;;;;;1.13;1.13;;;;;;;;;;5087303;28;20214;-64
2023/10/23 00:25:40;;;;;;;3.43;1.20;;;;;;;;;;5086411;28;20682;-64
2023/10/23 00:28:08;;;;;;;1.27;1.10;;;;;;;;;;5087613;28;20202;-64
2023/10/23 00:30:35;;;;;;;1.23;0.80;;;;;;;;;;5086626;28;20658;-64
2023/10/23 00:33:02;;;;;;;3.03;1.33;;;;;;;;;;5087076;28;20214;-64
2023/10/23 00:35:29;;;;;;;1.67;0.97;;;;;;;;;;5087039;28;20211;-63
2023/10/23 00:37:56;;;;;;;5.73;1.60;;;;;;;;;;5086622;28;20596;-64
2023/10/23 00:40:24;;;;;;;5.80;1.20;;;;;;;;;;5086918;28;20213;-64
2023/10/23 00:42:51;;;;;;;3.10;1.10;;;;;;;;;;5087182;28;20214;-64
2023/10/23 00:45:19;;;;;;;2.93;1.00;;;;;;;;;;5086415;28;20637;-64
2023/10/23 00:47:46;;;;;;;4.10;1.10;;;;;;;;;;5086849;28;20210;-64
2023/10/23 00:50:14;;;;;;;2.00;1.20;;;;;;;;;;5086157;28;20206;-64
2023/10/23 00:52:41;;;;;;;2.10;1.10;;;;;;;;;;5065045;28;20211;-64
2023/10/23 00:55:08;;;;;;;7.17;1.40;;;;;;;;;;5084068;28;20206;-64
2023/10/23 00:57:36;;;;;;;2.13;1.00;;;;;;;;;;5086781;28;20245;-64
2023/10/23 01:00:04;;;;;;;1.53;1.17;;;;;;;;;;5085994;28;20214;-64
2023/10/23 01:02:32;;;;;;;1.03;0.90;;;;;;;;;;5086111;28;20213;-64
2023/10/23 01:05:00;;;;;;;4.07;1.63;;;;;;;;;;5084883;28;20206;-64
2023/10/23 01:07:27;;;;;;;1.23;1.13;;;;;;;;;;5086513;28;20576;-64
2023/10/23 01:09:55;;;;;;;4.03;1.20;;;;;;;;;;5086056;28;20198;-64
2023/10/23 01:12:22;;;;;;;5.33;1.47;;;;;;;;;;5086732;28;20217;-64
2023/10/23 01:14:49;;;;;;;3.33;1.27;;;;;;;;;;5086291;28;20733;-64
2023/10/23 01:17:16;;;;;;;4.23;1.27;;;;;;;;;;5085834;28;20229;-64
2023/10/23 01:19:44;;;;;;;2.20;1.47;;;;;;;;;;5086292;28;20214;-64
2023/10/23 01:22:11;;;;;;;2.93;1.10;;;;;;;;;;5086288;28;20210;-64
2023/10/23 01:24:40;;;;;;;3.87;1.17;;;;;;;;;;5085942;28;20610;-64
2023/10/23 01:27:08;;;;;;;2.23;1.13;;;;;;;;;;5086267;28;20210;-64
2023/10/23 01:29:35;;;;;;;2.20;1.17;;;;;;;;;;5086183;28;20210;-64
2023/10/23 01:32:03;;;;;;;1.50;1.33;;;;;;;;;;5085620;28;20577;-64
2023/10/23 01:34:30;;;;;;;1.03;0.97;;;;;;;;;;5085626;28;20220;-65
2023/10/23 01:36:57;;;;;;;1.47;1.33;;;;;;;;;;5085980;28;20241;-64
2023/10/23 01:39:24;;;;;;;3.73;1.27;;;;;;;;;;5085040;28;20206;-64
2023/10/23 01:41:51;;;;;;;4.80;1.27;;;;;;;;;;5086136;28;20210;-64
2023/10/23 01:44:19;;;;;;;1.47;1.00;;;;;;;;;;5086132;28;20230;-64
2023/10/23 01:46:46;;;;;;;3.90;1.03;;;;;;;;;;5085591;28;20210;-63
2023/10/23 01:49:13;;;;;;;2.40;1.00;;;;;;;;;;5085925;28;20210;-64
2023/10/23 01:51:40;;;;;;;1.63;1.03;;;;;;;;;;5086166;28;20674;-63
2023/10/23 01:54:07;;;;;;;3.83;1.00;;;;;;;;;;5085489;28;20260;-64
2023/10/23 01:56:36;;;;;;;1.57;0.97;;;;;;;;;;5085877;28;20210;-64
2023/10/23 01:59:03;;;;;;;2.47;1.07;;;;;;;;;;5085085;28;20709;-64
2023/10/23 02:01:33;;;;;;;1.30;1.30;;;;;;;;;;5081646;28;20238;-63
2023/10/23 02:04:00;;;;;;;3.60;3.10;;;;;;;;;;5085362;28;20236;-64
2023/10/23 02:06:27;;;;;;;3.07;1.33;;;;;;;;;;5085607;28;20230;-64
2023/10/23 02:08:54;;;;;;;2.20;1.30;;;;;;;;;;5085107;28;20225;-64
2023/10/23 02:11:21;;;;;;;2.10;1.10;;;;;;;;;;5085122;28;20419;-64
2023/10/23 02:13:48;;;;;;;2.93;1.20;;;;;;;;;;5085612;28;20607;-64
2023/10/23 02:16:15;;;;;;;2.53;1.13;;;;;;;;;;5085432;28;20206;-64
2023/10/23 02:18:44;;;;;;;1.60;0.93;;;;;;;;;;5085359;28;20230;-64
2023/10/23 02:21:11;;;;;;;1.80;1.00;;;;;;;;;;5085571;28;20256;-64
2023/10/23 02:23:38;;;;;;;4.97;1.33;;;;;;;;;;5085152;28;20589;-64
2023/10/23 02:26:05;;;;;;;2.10;1.13;;;;;;;;;;5085041;28;20866;-64
2023/10/23 02:28:32;;;;;;;1.33;1.17;;;;;;;;;;5085757;28;20207;-64
2023/10/23 02:30:59;;;;;;;0.80;0.80;;;;;;;;;;5084944;28;20215;-64
2023/10/23 02:33:26;;;;;;;1.73;1.17;;;;;;;;;;5085407;28;20287;-63
2023/10/23 02:35:54;;;;;;;2.70;1.20;;;;;;;;;;5085596;28;20242;-64
2023/10/23 02:38:21;;;;;;;4.40;1.20;;;;;;;;;;5084210;28;20223;-64
2023/10/23 02:40:52;;;;;;;5.43;1.00;;;;;;;;;;5085039;28;20210;-64
2023/10/23 02:43:19;;;;;;;1.40;0.70;;;;;;;;;;5085691;28;20253;-64
2023/10/23 02:45:47;;;;;;;0.90;0.90;;;;;;;;;;5085468;28;20247;-64
2023/10/23 02:48:15;;;;;;;2.40;1.20;;;;;;;;;;5084997;28;20210;-64
2023/10/23 02:50:42;;;;;;;1.27;1.23;;;;;;;;;;5088371;28;20301;-64
2023/10/23 02:53:10;;;;;;;4.10;1.00;;;;;;;;;;5088687;28;20198;-64
2023/10/23 02:55:37;;;;;;;4.00;0.80;;;;;;;;;;5088671;28;20214;-64
2023/10/23 02:58:04;;;;;;;1.13;1.00;;;;;;;;;;5086991;28;20702;-64
2023/10/23 03:00:31;;;;;;;3.43;0.90;;;;;;;;;;5088774;28;20217;-63
2023/10/23 03:02:58;;;;;;;3.73;1.10;;;;;;;;;;5088516;28;20806;-63
2023/10/23 03:05:25;;;;;;;0.80;0.80;;;;;;;;;;5088664;28;20237;-64
2023/10/23 03:07:52;;;;;;;1.90;1.03;;;;;;;;;;5088577;28;20631;-64
2023/10/23 03:10:21;;;;;;;2.93;1.13;;;;;;;;;;5088271;28;20294;-63
2023/10/23 03:12:48;;;;;;;6.90;1.07;;;;;;;;;;5088492;28;20206;-64
2023/10/23 03:15:16;;;;;;;1.50;1.20;;;;;;;;;;5088523;28;20245;-63
2023/10/23 03:17:43;;;;;;;1.40;1.30;;;;;;;;;;5087934;28;20241;-64
2023/10/23 03:20:11;;;;;;;1.87;1.10;;;;;;;;;;5088609;28;20668;-64
2023/10/23 03:22:38;;;;;;;1.50;1.40;;;;;;;;;;5088689;28;20218;-64
2023/10/23 03:25:05;;;;;;;6.00;1.30;;;;;;;;;;5088056;28;20233;-64
2023/10/23 03:27:34;;;;;;;1.70;1.53;;;;;;;;;;5088509;28;20221;-64
2023/10/23 03:30:01;;;;;;;2.33;1.50;;;;;;;;;;5088738;28;20237;-64
2023/10/23 03:32:29;;;;;;;2.90;1.73;;;;;;;;;;5087679;28;20214;-64
2023/10/23 03:34:57;;;;;;;1.57;1.50;;;;;;;;;;5087862;28;20228;-64
2023/10/23 03:37:24;;;;;;;6.53;1.67;;;;;;;;;;5088377;28;20297;-64
2023/10/23 03:39:51;;;;;;;4.33;1.70;;;;;;;;;;5087861;28;20259;-64
2023/10/23 03:42:18;;;;;;;1.67;1.50;;;;;;;;;;5087819;28;20214;-64
2023/10/23 03:44:46;;;;;;;2.43;1.70;;;;;;;;;;5088280;28;20229;-64
2023/10/23 03:47:13;;;;;;;4.40;1.83;;;;;;;;;;5087330;28;20206;-64
2023/10/23 03:49:40;;;;;;;8.37;2.10;;;;;;;;;;5087489;28;20214;-64
2023/10/23 03:52:07;;;;;;;2.20;1.77;;;;;;;;;;5088276;28;20206;-63
2023/10/23 03:54:34;;;;;;;6.73;2.60;;;;;;;;;;5087411;28;20214;-64
2023/10/23 03:57:01;;;;;;;4.30;2.80;;;;;;;;;;5087586;28;20214;-64
2023/10/23 03:59:28;;;;;;;4.17;2.67;;;;;;;;;;5085948;28;20226;-64
2023/10/23 04:01:57;;;;;;;7.60;3.30;;;;;;;;;;5085861;28;20214;-63
2023/10/23 04:04:24;;;;;;;9.60;3.37;;;;;;;;;;5085993;28;20203;-63
2023/10/23 04:06:51;;;;;;;7.00;3.13;;;;;;;;;;5087384;28;20242;-64
2023/10/23 04:09:18;;;;;;;16.80;4.93;;;;;;;;;;5087037;28;20689;-64
2023/10/23 04:11:45;;;;;;;9.00;3.70;;;;;;;;;;5087413;28;20213;-63
2023/10/23 04:14:12;;;;;;;12.17;4.03;;;;;;;;;;5087363;28;20238;-64
2023/10/23 04:16:39;;;;;;;15.00;4.17;;;;;;;;;;5086655;28;20202;-64
2023/10/23 04:19:08;;;;;;;10.33;3.63;;;;;;;;;;5087581;28;20317;-63
2023/10/23 04:21:39;;;;;;;8.33;3.83;;;;;;;;;;5087455;28;20214;-63
2023/10/23 04:24:06;;;;;;;8.60;3.10;;;;;;;;;;5083775;28;20210;-64
2023/10/23 04:26:33;;;;;;;11.27;3.37;;;;;;;;;;5086475;28;20214;-64
2023/10/23 04:29:00;;;;;;;3.90;2.80;;;;;;;;;;5083273;28;20660;-64
2023/10/23 04:31:27;;;;;;;5.40;2.70;;;;;;;;;;5087302;28;20215;-64
2023/10/23 04:33:54;;;;;;;10.93;2.33;;;;;;;;;;5083252;28;20342;-63
2023/10/23 04:36:22;;;;;;;8.60;2.23;;;;;;;;;;5084657;28;20686;-64
2023/10/23 04:38:49;;;;;;;9.33;2.20;;;;;;;;;;5086989;28;20235;-63
2023/10/23 04:41:16;;;;;;;5.23;2.73;;;;;;;;;;5086512;28;20645;-63
2023/10/23 04:43:43;;;;;;;7.50;1.97;;;;;;;;;;5086755;28;20217;-63
2023/10/23 04:46:10;;;;;;;8.10;2.13;;;;;;;;;;5086881;28;20206;-63
2023/10/23 04:48:37;;;;;;;4.40;1.87;;;;;;;;;;5086512;28;20442;-63
2023/10/23 04:51:04;;;;;;;7.40;2.40;;;;;;;;;;5087157;28;20209;-63
2023/10/23 04:53:33;;;;;;;5.73;2.23;;;;;;;;;;5086420;28;20218;-63
2023/10/23 04:56:00;;;;;;;16.23;2.40;;;;;;;;;;5086522;28;20771;-63
2023/10/23 04:58:27;;;;;;;4.07;1.47;;;;;;;;;;5086807;28;20229;-63
2023/10/23 05:00:54;;;;;;;2.27;1.70;;;;;;;;;;5086460;28;20616;-64
2023/10/23 05:03:21;;;;;;;3.00;2.27;;;;;;;;;;5085861;28;20267;-64
2023/10/23 05:05:48;;;;;;;15.27;2.73;;;;;;;;;;5083883;28;20646;-64
2023/10/23 05:08:15;;;;;;;4.17;1.90;;;;;;;;;;5086180;28;20293;-63
2023/10/23 05:10:44;;;;;;;8.73;2.33;;;;;;;;;;5085215;28;20809;-62
2023/10/23 05:13:11;;;;;;;11.50;2.13;;;;;;;;;;5085231;28;20233;-62
2023/10/23 05:15:38;;;;;;;22.47;2.33;;;;;;;;;;5082829;28;20231;-63
2023/10/23 05:18:05;;;;;;;15.43;2.50;;;;;;;;;;5084801;28;20282;-62
2023/10/23 05:20:35;;;;;;;10.80;2.67;;;;;;;;;;5084681;28;20217;-62
2023/10/23 05:23:03;;;;;;;20.83;2.60;;;;;;;;;;5086049;28;20210;-62
2023/10/23 05:25:30;;;;;;;19.93;2.87;;;;;;;;;;5085178;28;20226;-63
2023/10/23 05:27:58;;;;;;;23.87;2.93;;;;;;;;;;5084943;28;20216;-62
2023/10/23 05:30:26;;;;;;;5.83;2.60;;;;;;;;;;5084317;28;20210;-61
2023/10/23 05:32:53;;;;;;;17.87;3.00;;;;;;;;;;5085419;28;20256;-61
2023/10/23 05:35:20;;;;;;;38.83;3.43;;;;;;;;;;5085437;28;20468;-63
2023/10/23 05:37:48;;;;;;;3.20;2.87;;;;;;;;;;5085500;28;20210;-62
2023/10/23 05:40:15;;;;;;;5.33;3.30;;;;;;;;;;5085223;28;20230;-62
2023/10/23 05:42:42;;;;;;;3.83;3.53;;;;;;;;;;5085358;28;20685;-62
2023/10/23 05:45:11;;;;;;;4.60;3.83;;;;;;;;;;5085878;28;20610;-63
2023/10/23 05:47:38;;;;;;;7.83;3.97;;;;;;;;;;5085277;28;20696;-62
2023/10/23 05:50:06;;;;;;;4.47;4.00;;;;;;;;;;5085571;28;20206;-63
2023/10/23 05:52:33;;;;;;;6.83;3.50;;;;;;;;;;5085663;28;20285;-63
2023/10/23 05:55:04;;;;;;;10.27;4.20;;;;;;;;;;5085657;28;20217;-63
2023/10/23 05:57:31;;;;;;;15.00;6.50;;;;;;;;;;5085527;28;20221;-63
2023/10/23 05:59:58;;;;;;;16.03;8.87;;;;;;;;;;5085439;28;20226;-63
2023/10/23 06:02:26;;;;;;;20.43;7.37;;;;;;;;;;5083406;28;20659;-62
2023/10/23 06:04:53;;;;;;;9.07;6.47;;;;;;;;;;5084990;28;20271;-62
2023/10/23 06:07:20;;;;;;;15.23;5.23;;;;;;;;;;5084707;28;20582;-63
2023/10/23 06:09:47;;;;;;;12.37;4.50;;;;;;;;;;5083984;28;20198;-63
2023/10/23 06:12:14;;;;;;;10.53;3.83;;;;;;;;;;5084804;28;20205;-62
2023/10/23 06:14:41;;;;;;;4.73;3.53;;;;;;;;;;5081706;28;20667;-63
2023/10/23 06:17:09;;;;;;;7.63;3.03;;;;;;;;;;5065694;28;20532;-62
2023/10/23 06:19:37;;;;;;;13.00;3.87;;;;;;;;;;5074973;28;20233;-65
2023/10/23 06:22:05;;;;;;;9.37;3.17;;;;;;;;;;5085330;28;20202;-63
2023/10/23 06:24:32;;;;;;;8.00;3.23;;;;;;;;;;5086983;28;20238;-63
2023/10/23 06:26:59;;;;;;;6.90;3.37;;;;;;;;;;5089286;28;20236;-63
2023/10/23 06:29:26;;;;;;;10.70;4.23;;;;;;;;;;5080947;28;20230;-63
2023/10/23 06:31:53;;;;;;;11.87;4.30;;;;;;;;;;5079382;28;20573;-62
2023/10/23 06:34:20;;;;;;;4.73;3.20;;;;;;;;;;5084157;28;20210;-63
2023/10/23 06:36:48;;;;;;;6.77;3.27;;;;;;;;;;5089016;28;20202;-63
2023/10/23 06:39:16;;;;;;;8.87;3.77;;;;;;;;;;5089283;28;20226;-63
2023/10/23 06:41:43;;;;;;;9.70;3.93;;;;;;;;;;5088209;28;20198;-63
2023/10/23 06:44:10;;;;;;;21.70;4.57;;;;;;;;;;5088708;28;20217;-63
2023/10/23 06:46:37;;;;;;;15.73;3.87;;;;;;;;;;5089283;28;20301;-63
2023/10/23 06:49:05;;;;;;;14.20;4.00;;;;;;;;;;5069894;28;20689;-63
2023/10/23 06:51:32;;;;;;;24.83;4.83;;;;;;;;;;5072258;28;20201;-63
2023/10/23 06:54:00;;;;;;;12.87;4.07;;;;;;;;;;5088995;28;20202;-63
2023/10/23 06:56:28;;;;;;;18.27;5.10;;;;;;;;;;5088730;28;20553;-62
2023/10/23 06:58:55;;;;;;;18.33;4.67;;;;;;;;;;5079401;28;20215;-63
2023/10/23 07:01:22;;;;;;;11.07;6.10;;;;;;;;;;5088148;28;20211;-64
2023/10/23 07:03:49;;;;;;;28.53;6.63;;;;;;;;;;5075089;28;20211;-64
2023/10/23 07:06:16;;;;;;;18.80;6.07;;;;;;;;;;5085281;28;20241;-64
2023/10/23 07:08:43;;;;;;;18.67;7.03;;;;;;;;;;5088747;28;20202;-64
2023/10/23 07:11:15;;;;;;;24.60;7.80;;;;;;;;;;5088105;28;20304;-64
2023/10/23 07:13:42;;;;;;;16.23;7.07;;;;;;;;;;5087917;28;20242;-64
2023/10/23 07:16:09;;;;;;;15.30;6.70;;;;;;;;;;5085496;28;20203;-64
2023/10/23 07:18:36;;;;;;;13.33;6.80;;;;;;;;;;5086417;28;20206;-64
2023/10/23 07:21:03;;;;;;;10.50;6.73;;;;;;;;;;5069663;28;20210;-64
2023/10/23 07:23:30;;;;;;;14.83;6.37;;;;;;;;;;5068470;28;20679;-68
2023/10/23 07:26:07;;;;;;;12.50;6.80;;;;;;;;;;5083217;28;20571;-64
2023/10/23 07:28:35;;;;;;;14.87;6.10;;;;;;;;;;5069367;28;20201;-64
2023/10/23 07:31:04;;;;;;;8.77;5.60;;;;;;;;;;5067712;28;20210;-64
2023/10/23 07:33:31;;;;;;;7.43;4.83;;;;;;;;;;5067550;28;20218;-63
2023/10/23 07:36:02;;;;;;;9.13;5.03;;;;;;;;;;5082192;28;20639;-63
2023/10/23 07:38:29;;;;;;;7.87;5.23;;;;;;;;;;5088042;28;20214;-63
2023/10/23 07:40:57;;;;;;;6.33;5.00;;;;;;;;;;5087526;28;20709;-63
2023/10/23 07:43:24;;;;;;;6.27;5.57;;;;;;;;;;5087508;28;20210;-63
2023/10/23 07:45:53;;;;;;;8.07;5.40;;;;;;;;;;5088128;28;20218;-63
2023/10/23 07:48:20;;;;;;;11.77;5.17;;;;;;;;;;5087676;28;20210;-64
2023/10/23 07:50:47;;;;;;;5.10;4.60;;;;;;;;;;5087512;28;20207;-63
2023/10/23 07:53:14;;;;;;;10.30;4.53;;;;;;;;;;5083187;28;20199;-63
2023/10/23 07:55:42;;;;;;;7.20;4.40;;;;;;;;;;5074103;28;20299;-63
2023/10/23 07:58:09;;;;;;;9.57;5.13;;;;;;;;;;5085628;28;20202;-63
2023/10/23 08:00:36;;;;;;;6.60;4.77;;;;;;;;;;5078005;28;20234;-62
2023/10/23 08:03:05;;;;;;;5.73;4.13;;;;;;;;;;5066977;28;20530;-64
2023/10/23 08:05:32;;;;;;;11.10;4.73;;;;;;;;;;5077073;28;20233;-62
2023/10/23 08:08:00;;;;;;;6.17;4.10;;;;;;;;;;5087234;28;20233;-63
2023/10/23 08:10:27;;;;;;;6.00;4.17;;;;;;;;;;5087251;28;20252;-62
2023/10/23 08:12:54;;;;;;;6.43;4.63;;;;;;;;;;5076209;28;20206;-63
2023/10/23 08:15:21;;;;;;;7.00;4.27;;;;;;;;;;5066978;28;20250;-64
2023/10/23 08:17:50;;;;;;;4.90;4.40;;;;;;;;;;5067869;28;20211;-64
2023/10/23 08:20:18;;;;;;;10.67;4.77;;;;;;;;;;5075800;28;20245;-62
2023/10/23 08:22:45;;;;;;;8.70;4.67;;;;;;;;;;5083544;28;20209;-64
2023/10/23 08:25:12;;;;;;;5.20;4.37;;;;;;;;;;5085080;28;20209;-64
2023/10/23 08:27:39;;;;;;;13.90;4.90;;;;;;;;;;5078360;28;20662;-65
2023/10/23 08:30:07;;;;;;;11.23;4.37;;;;;;;;;;5073537;28;20214;-63
2023/10/23 08:32:35;;;;;;;7.83;4.27;;;;;;;;;;5084162;28;20203;-64
2023/10/23 08:35:03;;;;;;;5.47;3.83;;;;;;;;;;5085405;28;20202;-63
2023/10/23 08:37:31;;;;;;;14.17;4.23;;;;;;;;;;5070905;28;20642;-64
2023/10/23 08:39:58;;;;;;;7.47;4.10;;;;;;;;;;5069095;28;20885;-63
2023/10/23 08:42:27;;;;;;;9.03;3.90;;;;;;;;;;5085956;28;20202;-65
2023/10/23 08:44:54;;;;;;;4.83;3.37;;;;;;;;;;5085748;28;20198;-63
2023/10/23 08:47:21;;;;;;;4.57;3.33;;;;;;;;;;5074024;28;20787;-64
2023/10/23 08:49:49;;;;;;;6.40;3.97;;;;;;;;;;5082005;28;20205;-64
2023/10/23 08:52:17;;;;;;;12.50;3.77;;;;;;;;;;5082467;28;20203;-64
2023/10/23 08:54:45;;;;;;;4.93;3.20;;;;;;;;;;5086114;28;20650;-62
2023/10/23 08:57:13;;;;;;;5.73;3.60;;;;;;;;;;5072494;28;20203;-63
2023/10/23 08:59:41;;;;;;;6.60;4.30;;;;;;;;;;5069084;28;20855;-64
2023/10/23 09:02:09;;;;;;;7.30;3.40;;;;;;;;;;5085401;28;20250;-65
2023/10/23 09:04:36;;;;;;;4.87;3.17;;;;;;;;;;5085293;28;20673;-64
2023/10/23 09:07:03;;;;;;;10.40;3.20;;;;;;;;;;5085413;28;20961;-64
2023/10/23 09:09:30;;;;;;;4.13;3.10;;;;;;;;;;5085985;28;20211;-64
2023/10/23 09:11:59;;;;;;;5.57;2.93;;;;;;;;;;5085569;28;20207;-65
2023/10/23 09:14:27;;;;;;;6.07;2.63;;;;;;;;;;5085533;28;20627;-66
2023/10/23 09:16:55;;;;;;;4.87;2.67;;;;;;;;;;5083713;28;20195;-63
2023/10/23 09:19:26;;;;;;;3.53;2.40;;;;;;;;;;5086351;28;20207;-63
2023/10/23 09:21:54;;;;;;;2.60;2.40;;;;;;;;;;5081846;28;20226;-65
2023/10/23 09:24:21;;;;;;;4.60;2.40;;;;;;;;;;5085768;28;20217;-63
2023/10/23 09:26:48;;;;;;;3.90;2.00;;;;;;;;;;5084212;28;20365;-65
2023/10/23 09:29:17;;;;;;;2.20;2.00;;;;;;;;;;5084628;28;20195;-64
2023/10/23 09:31:44;;;;;;;6.00;2.23;;;;;;;;;;5070586;28;20218;-64
2023/10/23 09:34:12;;;;;;;3.97;2.00;;;;;;;;;;5080322;28;20213;-65
2023/10/23 09:36:39;;;;;;;2.53;1.70;;;;;;;;;;5084098;28;20221;-65
2023/10/23 09:39:06;;;;;;;4.37;2.03;;;;;;;;;;5082386;28;20225;-65
2023/10/23 09:41:34;;;;;;;3.47;1.80;;;;;;;;;;5082399;28;20642;-63
2023/10/23 09:44:03;;;;;;;4.73;2.30;;;;;;;;;;5083913;28;20291;-64
2023/10/23 09:46:32;;;;;;;5.03;2.20;;;;;;;;;;5082947;28;20198;-63
2023/10/23 09:49:03;;;;;;;5.37;2.40;;;;;;;;;;5083596;28;20195;-64
2023/10/23 09:51:32;;;;;;;2.77;1.90;;;;;;;;;;5083370;28;20397;-63
2023/10/23 09:54:00;;;;;;;2.73;1.90;;;;;;;;;;5080507;28;20297;-63
2023/10/23 09:56:31;;;;;;;5.13;2.20;;;;;;;;;;5081685;28;20616;-64
2023/10/23 09:59:00;;;;;;;3.70;2.23;;;;;;;;;;5064753;28;20214;-63
2023/10/23 10:01:29;;;;;;;3.50;2.30;;;;;;;;;;5067879;28;20318;-63
2023/10/23 10:03:59;;;;;;;2.23;1.80;;;;;;;;;;5067888;28;20203;-64
2023/10/23 10:06:27;;;;;;;3.37;2.00;;;;;;;;;;5086221;28;20230;-64
2023/10/23 10:08:55;;;;;;;3.63;2.03;;;;;;;;;;5086948;28;20206;-63
2023/10/23 10:11:23;;;;;;;2.47;2.27;;;;;;;;;;5087052;28;20529;-63
2023/10/23 10:13:50;;;;;;;7.67;1.93;;;;;;;;;;5087909;28;20222;-64
2023/10/23 10:16:18;;;;;;;4.53;1.80;;;;;;;;;;5075831;28;20249;-63
2023/10/23 10:18:46;;;;;;;5.57;1.70;;;;;;;;;;5066649;28;20756;-63
2023/10/23 10:21:14;;;;;;;2.37;1.77;;;;;;;;;;5067685;28;20231;-63
2023/10/23 10:23:42;;;;;;;2.23;2.07;;;;;;;;;;5068335;28;20218;-63
2023/10/23 10:26:09;;;;;;;3.13;1.83;;;;;;;;;;5067919;28;20215;-63
2023/10/23 10:28:39;;;;;;;2.20;2.00;;;;;;;;;;5068136;28;20924;-63
2023/10/23 10:31:06;;;;;;;4.87;1.80;;;;;;;;;;5068381;28;20265;-63
2023/10/23 10:33:33;;;;;;;3.67;2.00;;;;;;;;;;5067943;28;20576;-62
2023/10/23 10:36:03;;;;;;;3.17;2.07;;;;;;;;;;5079334;28;20215;-63
2023/10/23 10:38:31;;;;;;;3.10;2.20;;;;;;;;;;5068166;28;20207;-63
2023/10/23 10:41:00;;;;;;;2.23;1.90;;;;;;;;;;5068213;28;20242;-63
2023/10/23 10:43:27;;;;;;;3.63;2.00;;;;;;;;;;5068873;28;20719;-64
2023/10/23 10:45:56;;;;;;;3.87;2.73;;;;;;;;;;5083847;28;20375;-64
2023/10/23 10:48:24;;;;;;;7.80;2.40;;;;;;;;;;5083278;28;20767;-64
2023/10/23 10:50:51;;;;;;;4.10;2.20;;;;;;;;;;5073919;28;20231;-64
2023/10/23 10:53:19;;;;;;;8.80;2.20;;;;;;;;;;5087752;28;20214;-64
2023/10/23 10:55:47;;;;;;;3.90;2.63;;;;;;;;;;5083425;28;20213;-71
2023/10/23 10:58:14;;;;;;;2.47;2.00;;;;;;;;;;5089573;28;20210;-70
2023/10/23 11:00:41;;;;;;;2.20;2.00;;;;;;;;;;5067867;28;20227;-67
2023/10/23 11:03:09;;;;;;;3.43;2.20;;;;;;;;;;5068091;28;20214;-64
2023/10/23 11:05:38;;;;;;;2.30;1.67;;;;;;;;;;5079171;28;20704;-64
2023/10/23 11:08:05;;;;;;;2.20;1.60;;;;;;;;;;5087423;28;20210;-64
2023/10/23 11:10:32;;;;;;;2.67;1.90;;;;;;;;;;5087158;28;20198;-64
2023/10/23 11:13:01;;;;;;;2.93;2.03;;;;;;;;;;5088170;28;20210;-64
2023/10/23 11:15:28;;;;;;;1.95;1.70;;;;;;;;;;5087224;28;20640;-64
2023/10/23 11:17:55;;;;;;;2.53;2.33;;;;;;;;;;5087695;28;20897;-64
2023/10/23 11:20:22;;;;;;;5.43;1.87;;;;;;;;;;5087990;28;20234;-63
2023/10/23 11:22:49;;;;;;;4.38;2.35;;;;;;;;;;5087104;28;20218;-64
2023/10/23 11:25:17;;;;;;;3.63;1.73;;;;;;;;;;5087384;28;20221;-65
2023/10/23 11:27:46;;;;;;;3.53;1.50;;;;;;;;;;5087937;28;20203;-64
2023/10/23 11:30:14;;;;;;;3.83;1.80;;;;;;;;;;5087677;28;20225;-63
2023/10/23 11:32:44;;;;;;;3.93;2.10;;;;;;;;;;5087097;28;20696;-64
2023/10/23 11:35:11;;;;;;;5.25;1.50;;;;;;;;;;5087177;28;20218;-65
2023/10/23 11:37:38;;;;;;;2.07;1.80;;;;;;;;;;5087618;28;20529;-65
2023/10/23 11:40:06;;;;;;;1.70;1.60;;;;;;;;;;5087003;28;20210;-64
2023/10/23 11:42:42;;;;;;;4.75;1.50;;;;;;;;;;5086813;28;20308;-64
2023/10/23 11:45:11;;;;;;;1.83;1.38;;;;;;;;;;5086995;28;20788;-64
2023/10/23 11:47:39;;;;;;;4.35;1.42;;;;;;;;;;5087267;28;20623;-65
2023/10/23 11:50:10;;;;;;;1.17;1.10;;;;;;;;;;5085550;28;20210;-64
2023/10/23 11:52:37;;;;;;;4.03;1.10;;;;;;;;;;5087071;28;20290;-64
2023/10/23 11:55:06;;;;;;;4.43;1.27;;;;;;;;;;5086731;28;20210;-65
2023/10/23 11:57:33;;;;;;;2.88;1.52;;;;;;;;;;5086842;28;20202;-64
2023/10/23 12:00:06;;;;;;;4.10;1.33;;;;;;;;;;5087277;28;20238;-65
2023/10/23 12:02:33;;;;;;;5.27;1.30;;;;;;;;;;5086708;28;20741;-64
2023/10/23 12:05:02;;;;;;;2.65;1.55;;;;;;;;;;5086279;28;20215;-64
2023/10/23 12:07:29;;;;;;;1.40;1.30;;;;;;;;;;5087014;28;20214;-64
2023/10/23 12:09:56;;;;;;;2.72;1.08;;;;;;;;;;5087225;28;20210;-64
2023/10/23 12:12:23;;;;;;;9.50;1.40;;;;;;;;;;5084980;28;20209;-67
2023/10/23 12:14:50;;;;;;;5.32;1.25;;;;;;;;;;5086159;28;20238;-64
2023/10/23 12:17:17;;;;;;;1.67;1.13;;;;;;;;;;5087162;28;20217;-65
2023/10/23 12:19:44;;;;;;;4.72;1.50;;;;;;;;;;5077414;28;20663;-64
2023/10/23 12:22:12;;;;;;;0.90;0.90;;;;;;;;;;5073505;28;20226;-64
2023/10/23 12:24:39;;;;;;;2.20;1.70;;;;;;;;;;5081302;28;20202;-64
2023/10/23 12:27:06;;;;;;;2.78;1.02;;;;;;;;;;5084936;28;20597;-64
2023/10/23 12:29:33;;;;;;;2.15;1.02;;;;;;;;;;5083541;28;20209;-64
2023/10/23 12:32:00;;;;;;;2.45;0.98;;;;;;;;;;5065365;28;20199;-64
2023/10/23 12:34:30;;;;;;;1.00;1.00;;;;;;;;;;5066682;28;20214;-64
2023/10/23 12:36:57;;;;;;;3.78;0.95;;;;;;;;;;5084469;28;20198;-65
2023/10/23 12:39:26;;;;;;;1.77;1.20;;;;;;;;;;5085770;28;20210;-64
2023/10/23 12:41:53;;;;;;;3.97;1.27;;;;;;;;;;5083499;28;20229;-64
2023/10/23 12:44:20;;;;;;;5.07;1.08;;;;;;;;;;5072136;28;20206;-65
2023/10/23 12:46:47;;;;;;;4.70;1.10;;;;;;;;;;5084872;28;20225;-64
2023/10/23 12:49:14;;;;;;;6.72;1.98;;;;;;;;;;5084772;28;20205;-64
2023/10/23 12:51:41;;;;;;;4.95;1.30;;;;;;;;;;5084400;28;20268;-64
2023/10/23 12:54:09;;;;;;;2.40;1.15;;;;;;;;;;5085421;28;20233;-64
2023/10/23 12:56:37;;;;;;;2.08;1.30;;;;;;;;;;5084475;28;20289;-64
2023/10/23 12:59:05;;;;;;;3.25;1.58;;;;;;;;;;5084682;28;20399;-67
2023/10/23 13:01:32;;;;;;;1.27;1.23;;;;;;;;;;5084644;28;20250;-65
2023/10/23 13:03:59;;;;;;;1.73;1.20;;;;;;;;;;5083980;28;20209;-64
2023/10/23 13:06:27;;;;;;;1.95;1.17;;;;;;;;;;5081531;28;20297;-65
2023/10/23 13:08:54;;;;;;;3.20;1.50;;;;;;;;;;5074780;28;20218;-64
2023/10/23 13:11:22;;;;;;;2.20;1.10;;;;;;;;;;5084338;28;20210;-64
2023/10/23 13:13:50;;;;;;;3.47;1.52;;;;;;;;;;5083837;28;20299;-64
2023/10/23 13:16:17;;;;;;;2.33;0.93;;;;;;;;;;5076163;28;20221;-64
2023/10/23 13:18:44;;;;;;;1.17;1.10;;;;;;;;;;5086805;28;20208;-64
2023/10/23 13:21:12;;;;;;;4.60;1.05;;;;;;;;;;5087796;28;20320;-64
2023/10/23 13:23:39;;;;;;;1.10;1.08;;;;;;;;;;5081413;28;20305;-64
2023/10/23 13:26:07;;;;;;;0.90;0.90;;;;;;;;;;5084331;28;20744;-64
2023/10/23 13:28:34;;;;;;;6.18;1.45;;;;;;;;;;5082350;28;20818;-63
2023/10/23 13:31:03;;;;;;;2.08;1.58;;;;;;;;;;5085026;28;20262;-64
2023/10/23 13:33:30;;;;;;;2.67;2.47;;;;;;;;;;5085235;28;20670;-64
2023/10/23 13:35:57;;;;;;;6.75;1.98;;;;;;;;;;5081442;28;20214;-64
2023/10/23 13:38:24;;;;;;;1.00;1.00;;;;;;;;;;5084431;28;20233;-64
2023/10/23 13:40:51;;;;;;;2.67;1.40;;;;;;;;;;5069213;28;20223;-64
2023/10/23 13:43:18;;;;;;;1.33;0.85;;;;;;;;;;5072105;28;20206;-63
2023/10/23 13:45:46;;;;;;;1.52;1.17;;;;;;;;;;5083701;28;20202;-64
2023/10/23 13:48:14;;;;;;;4.57;1.27;;;;;;;;;;5084547;28;20686;-64
2023/10/23 13:50:41;;;;;;;1.40;1.23;;;;;;;;;;5084538;28;20213;-63
2023/10/23 13:53:08;;;;;;;1.67;1.25;;;;;;;;;;5085105;28;20213;-64
2023/10/23 13:55:35;;;;;;;1.85;1.30;;;;;;;;;;5085153;28;20206;-64
2023/10/23 13:58:02;;;;;;;1.92;1.75;;;;;;;;;;5084573;28;20217;-63
2023/10/23 14:00:30;;;;;;;2.90;1.40;;;;;;;;;;5082259;28;20285;-64
2023/10/23 14:02:57;;;;;;;1.95;1.40;;;;;;;;;;5076154;28;20237;-64
2023/10/23 14:05:25;;;;;;;5.68;1.85;;;;;;;;;;5076431;28;20226;-64
2023/10/23 14:07:52;;;;;;;4.82;1.40;;;;;;;;;;5071139;28;20771;-64
2023/10/23 14:10:19;;;;;;;4.45;1.73;;;;;;;;;;5082519;28;20264;-64
2023/10/23 14:12:46;;;;;;;4.93;1.30;;;;;;;;;;5081432;28;20650;-62
2023/10/23 14:15:13;;;;;;;2.83;1.38;;;;;;;;;;5069225;28;20269;-64
2023/10/23 14:17:40;;;;;;;3.53;1.77;;;;;;;;;;5069099;28;20209;-63
2023/10/23 14:20:08;;;;;;;4.03;1.55;;;;;;;;;;5079805;28;20202;-64
2023/10/23 14:22:38;;;;;;;1.35;1.33;;;;;;;;;;5079213;28;20225;-64
2023/10/23 14:25:06;;;;;;;3.10;1.60;;;;;;;;;;5082561;28;20704;-64
2023/10/23 14:27:33;;;;;;;2.45;1.25;;;;;;;;;;5081862;28;20870;-64
2023/10/23 14:30:00;;;;;;;1.80;1.58;;;;;;;;;;5082152;28;20214;-64
2023/10/23 14:32:27;;;;;;;2.65;1.63;;;;;;;;;;5082500;28;20199;-64
2023/10/23 14:34:54;;;;;;;4.13;1.77;;;;;;;;;;5081339;28;20213;-65
2023/10/23 14:37:21;;;;;;;2.10;1.58;;;;;;;;;;5081398;28;20221;-65
2023/10/23 14:39:49;;;;;;;4.90;1.40;;;;;;;;;;5082305;28;20736;-64
2023/10/23 14:42:16;;;;;;;3.65;1.70;;;;;;;;;;5081521;28;20234;-64